地図

経路データ

SID SEASON NUMBER BASIN SUBBASIN NAME ISO_TIME NATURE LAT LON WMO_WIND WMO_PRES WMO_AGENCY TRACK_TYPE DIST2LAND LANDFALL IFLAG USA_AGENCY USA_ATCF_ID USA_LAT USA_LON USA_RECORD USA_STATUS USA_WIND USA_PRES USA_SSHS USA_R34_NE USA_R34_SE USA_R34_SW USA_R34_NW USA_R50_NE USA_R50_SE USA_R50_SW USA_R50_NW USA_R64_NE USA_R64_SE USA_R64_SW USA_R64_NW USA_POCI USA_ROCI USA_RMW USA_EYE TOKYO_LAT TOKYO_LON TOKYO_GRADE TOKYO_WIND TOKYO_PRES TOKYO_R50_DIR TOKYO_R50_LONG TOKYO_R50_SHORT TOKYO_R30_DIR TOKYO_R30_LONG TOKYO_R30_SHORT TOKYO_LAND CMA_LAT CMA_LON CMA_CAT CMA_WIND CMA_PRES HKO_LAT HKO_LON HKO_CAT HKO_WIND HKO_PRES NEWDELHI_LAT NEWDELHI_LON NEWDELHI_GRADE NEWDELHI_WIND NEWDELHI_PRES NEWDELHI_CI NEWDELHI_DP NEWDELHI_POCI REUNION_LAT REUNION_LON REUNION_TYPE REUNION_WIND REUNION_PRES REUNION_TNUM REUNION_CI REUNION_RMW REUNION_R34_NE REUNION_R34_SE REUNION_R34_SW REUNION_R34_NW REUNION_R50_NE REUNION_R50_SE REUNION_R50_SW REUNION_R50_NW REUNION_R64_NE REUNION_R64_SE REUNION_R64_SW REUNION_R64_NW BOM_LAT BOM_LON BOM_TYPE BOM_WIND BOM_PRES BOM_TNUM BOM_CI BOM_RMW BOM_R34_NE BOM_R34_SE BOM_R34_SW BOM_R34_NW BOM_R50_NE BOM_R50_SE BOM_R50_SW BOM_R50_NW BOM_R64_NE BOM_R64_SE BOM_R64_SW BOM_R64_NW BOM_ROCI BOM_POCI BOM_EYE BOM_POS_METHOD BOM_PRES_METHOD NADI_LAT NADI_LON NADI_CAT NADI_WIND NADI_PRES WELLINGTON_LAT WELLINGTON_LON WELLINGTON_WIND WELLINGTON_PRES DS824_LAT DS824_LON DS824_STAGE DS824_WIND DS824_PRES TD9636_LAT TD9636_LON TD9636_STAGE TD9636_WIND TD9636_PRES TD9635_LAT TD9635_LON TD9635_WIND TD9635_PRES TD9635_ROCI NEUMANN_LAT NEUMANN_LON NEUMANN_CLASS NEUMANN_WIND NEUMANN_PRES MLC_LAT MLC_LON MLC_CLASS MLC_WIND MLC_PRES USA_GUST BOM_GUST BOM_GUST_PER REUNION_GUST REUNION_GUST_PER USA_SEAHGT USA_SEARAD_NE USA_SEARAD_SE USA_SEARAD_SW USA_SEARAD_NW STORM_SPEED STORM_DIR
1902040S11063 1902 9 SI MM NOT_NAMED 1902-02-09 00:00:00 TS -11.0000 63.2000 main 1176 1160 _________O____ -1 -11.0000 63.2000 TC 6 262
1902040S11063 1902 9 SI MM NOT_NAMED 1902-02-09 03:00:00 TS -11.0425 62.9025 main 1160 1135 _________P____ -1 -11.0425 62.9025 TC 6 260
1902040S11063 1902 9 SI MM NOT_NAMED 1902-02-09 06:00:00 TS -11.1000 62.6000 main 1135 1111 _________O____ -1 -11.1000 62.6000 TC 6 257
1902040S11063 1902 9 SI MM NOT_NAMED 1902-02-09 09:00:00 TS -11.1850 62.2925 main 1111 1087 _________P____ -1 -11.1850 62.2925 TC 6 251
1902040S11063 1902 9 SI MM NOT_NAMED 1902-02-09 12:00:00 TS -11.3000 62.0000 main 1087 1067 _________O____ -1 -11.3000 62.0000 TC 6 244
1902040S11063 1902 9 SI MM NOT_NAMED 1902-02-09 15:00:00 TS -11.4425 61.7425 main 1063 1034 _________P____ -1 -11.4425 61.7425 TC 6 238
1902040S11063 1902 9 SI MM NOT_NAMED 1902-02-09 18:00:00 TS -11.6000 61.5000 main 1034 1005 _________O____ -1 -11.6000 61.5000 TC 6 236
1902040S11063 1902 9 SI MM NOT_NAMED 1902-02-09 21:00:00 TS -11.7650 61.2500 main 1005 983 _________P____ -1 -11.7650 61.2500 TC 6 238
1902040S11063 1902 9 SI MM NOT_NAMED 1902-02-10 00:00:00 TS -11.9000 61.0000 main 983 965 _________O____ -1 -11.9000 61.0000 TC 5 249
1902040S11063 1902 9 SI MM NOT_NAMED 1902-02-10 03:00:00 TS -11.9575 60.7499 main 961 954 _________P____ -1 -11.9575 60.7499 TC 5 258
1902040S11063 1902 9 SI MM NOT_NAMED 1902-02-10 06:00:00 TS -12.0000 60.5000 main 954 937 _________O____ -1 -12.0000 60.5000 TC 5 255
1902040S11063 1902 9 SI MM NOT_NAMED 1902-02-10 09:00:00 TS -12.0850 60.2500 main 934 917 _________P____ -1 -12.0850 60.2500 TC 5 248
1902040S11063 1902 9 SI MM NOT_NAMED 1902-02-10 12:00:00 TS -12.2000 60.0000 main 917 901 _________O____ -1 -12.2000 60.0000 TC 6 243
1902040S11063 1902 9 SI MM NOT_NAMED 1902-02-10 15:00:00 TS -12.3350 59.7425 main 898 871 _________P____ -1 -12.3350 59.7425 TC 6 238
1902040S11063 1902 9 SI MM NOT_NAMED 1902-02-10 18:00:00 TS -12.5000 59.5000 main 871 845 _________O____ -1 -12.5000 59.5000 TC 6 231
1902040S11063 1902 9 SI MM NOT_NAMED 1902-02-10 21:00:00 TS -12.6849 59.2999 main 845 819 _________P____ -1 -12.6849 59.2999 TC 6 224
1902040S11063 1902 9 SI MM NOT_NAMED 1902-02-11 00:00:00 TS -12.9000 59.1000 main 819 793 _________O____ -1 -12.9000 59.1000 TC 6 224
1902040S11063 1902 9 SI MM NOT_NAMED 1902-02-11 03:00:00 TS -13.1350 58.8575 main 793 755 _________P____ -1 -13.1350 58.8575 TC 7 224
1902040S11063 1902 9 SI MM NOT_NAMED 1902-02-11 06:00:00 TS -13.4000 58.6000 main 755 719 _________O____ -1 -13.4000 58.6000 TC 8 222
1902040S11063 1902 9 SI MM NOT_NAMED 1902-02-11 09:00:00 TS -13.7000 58.3350 main 719 683 _________P____ -1 -13.7000 58.3350 TC 8 219
1902040S11063 1902 9 SI MM NOT_NAMED 1902-02-11 12:00:00 TS -14.0000 58.1000 main 683 660 _________O____ -1 -14.0000 58.1000 TC 7 215
1902040S11063 1902 9 SI MM NOT_NAMED 1902-02-11 15:00:00 TS -14.2500 57.9349 main 660 626 _________P____ -1 -14.2500 57.9349 TC 6 210
1902040S11063 1902 9 SI MM NOT_NAMED 1902-02-11 18:00:00 TS -14.5000 57.8000 main 626 593 _________O____ -1 -14.5000 57.8000 TC 6 208
1902040S11063 1902 9 SI MM NOT_NAMED 1902-02-11 21:00:00 TS -14.7850 57.6425 main 593 559 _________P____ -1 -14.7850 57.6425 TC 7 206
1902040S11063 1902 9 SI MM NOT_NAMED 1902-02-12 00:00:00 TS -15.1000 57.5000 main 559 526 _________O____ -1 -15.1000 57.5000 TC 7 201
1902040S11063 1902 9 SI MM NOT_NAMED 1902-02-12 03:00:00 TS -15.4350 57.3850 main 526 481 _________P____ -1 -15.4350 57.3850 TC 7 195
1902040S11063 1902 9 SI MM NOT_NAMED 1902-02-12 06:00:00 TS -15.8000 57.3000 main 481 437 _________O____ -1 -15.8000 57.3000 TC 8 190
1902040S11063 1902 9 SI MM NOT_NAMED 1902-02-12 09:00:00 TS -16.1925 57.2424 main 437 392 _________P____ -1 -16.1925 57.2424 TC 8 187
1902040S11063 1902 9 SI MM NOT_NAMED 1902-02-12 12:00:00 TS -16.6000 57.2000 main 392 349 _________O____ -1 -16.6000 57.2000 TC 8 188
1902040S11063 1902 9 SI MM NOT_NAMED 1902-02-12 15:00:00 TS -17.0000 57.1351 main 349 304 _________P____ -1 -17.0000 57.1351 TC 8 187
1902040S11063 1902 9 SI MM NOT_NAMED 1902-02-12 18:00:00 TS -17.4000 57.1000 main 304 260 _________O____ -1 -17.4000 57.1000 TC 8 181
1902040S11063 1902 9 SI MM NOT_NAMED 1902-02-12 21:00:00 TS -17.8000 57.1275 main 260 214 _________P____ -1 -17.8000 57.1275 TC 8 173
1902040S11063 1902 9 SI MM NOT_NAMED 1902-02-13 00:00:00 TS -18.2000 57.2000 main 214 169 _________O____ -1 -18.2000 57.2000 TC 8 169
1902040S11063 1902 9 SI MM NOT_NAMED 1902-02-13 03:00:00 TS -18.6000 57.2851 main 169 123 _________P____ -1 -18.6000 57.2851 TC 8 167
1902040S11063 1902 9 SI MM NOT_NAMED 1902-02-13 06:00:00 TS -19.0000 57.4000 main 123 78 _________O____ -1 -19.0000 57.4000 TC 9 163
1902040S11063 1902 9 SI MM NOT_NAMED 1902-02-13 09:00:00 TS -19.4150 57.5499 main 78 33 _________P____ -1 -19.4150 57.5499 TC 9 161
1902040S11063 1902 9 SI MM NOT_NAMED 1902-02-13 12:00:00 TS -19.8000 57.7000 main 33 10 _________O____ -1 -19.8000 57.7000 TC 7 162
1902040S11063 1902 9 SI MM NOT_NAMED 1902-02-13 15:00:00 TS -20.1150 57.8002 main 10 0 _________P____ -1 -20.1150 57.8002 TC 6 162
1902040S11063 1902 9 SI MM NOT_NAMED 1902-02-13 18:00:00 TS -20.4000 57.9000 main 15 15 _________O____ -1 -20.4000 57.9000 TC 6 159
1902040S11063 1902 9 SI MM NOT_NAMED 1902-02-13 21:00:00 TS -20.6951 58.0373 main 38 38 _________P____ -1 -20.6951 58.0373 TC 7 155
1902040S11063 1902 9 SI MM NOT_NAMED 1902-02-14 00:00:00 TS -21.0000 58.2000 main 76 _________O____ -1 -21.0000 58.2000 TC 7 154

IBTrACS Databaseについて

本データベースは、米国NOAAが公開する1842年以降の世界の熱帯低気圧のベストトラックデータアーカイブInternational Best Track Archive for Climate Stewardship (IBTrACS)を、ウェブで閲覧しやすい形式に変換したものです。

最終更新日:2021-10-27